createdAt,value
2023-03-17T00:14:37.566Z,33.95
2023-03-17T00:34:37.521Z,33.94
2023-03-17T00:54:37.518Z,33.94
2023-03-17T01:14:37.952Z,33.94
2023-03-17T01:34:37.496Z,33.93
2023-03-17T01:54:36.747Z,33.93
2023-03-17T02:14:37.504Z,33.93
2023-03-17T02:34:37.546Z,33.93
2023-03-17T02:54:37.479Z,33.92
2023-03-17T03:14:37.488Z,33.92
2023-03-17T03:34:36.966Z,33.92
2023-03-17T03:54:36.696Z,33.91
2023-03-17T04:14:36.945Z,33.91
2023-03-17T04:34:37.455Z,33.91
2023-03-17T04:54:37.470Z,33.9
2023-03-17T05:14:37.537Z,33.91
2023-03-17T05:34:37.456Z,33.9
2023-03-17T06:14:37.460Z,33.9
2023-03-17T06:34:36.685Z,33.9
2023-03-17T06:54:37.444Z,33.9
2023-03-17T07:14:37.454Z,33.9
2023-03-17T07:54:36.666Z,33.89
2023-03-17T08:14:37.430Z,33.89
2023-03-17T08:34:37.430Z,33.88
2023-03-17T08:54:37.462Z,33.88
2023-03-17T09:14:43.694Z,33.88
2023-03-17T09:34:37.475Z,33.88
2023-03-17T09:54:37.419Z,33.88
2023-03-17T10:14:37.411Z,33.87
2023-03-17T10:34:37.968Z,33.87
2023-03-17T10:54:37.423Z,33.87
2023-03-17T11:14:36.875Z,33.87
2023-03-17T11:34:37.396Z,33.86
2023-03-17T11:54:37.406Z,33.86
2023-03-17T12:14:36.601Z,33.86
2023-03-17T12:34:37.368Z,33.86
2023-03-17T12:54:37.375Z,33.85
2023-03-17T13:14:37.356Z,33.85
2023-03-17T13:34:37.350Z,33.85
2023-03-17T13:54:37.355Z,33.84
2023-03-17T14:14:36.589Z,33.84
2023-03-17T14:54:37.334Z,33.84
2023-03-17T15:14:37.343Z,33.84
2023-03-17T15:34:37.309Z,33.83
2023-03-17T16:34:37.277Z,33.82
2023-03-17T16:54:37.283Z,33.82
2023-03-17T17:14:37.127Z,33.82
2023-03-17T17:34:37.288Z,33.82
2023-03-17T17:54:37.256Z,33.81
2023-03-17T18:14:37.302Z,33.81
2023-03-17T18:34:36.119Z,33.81
2023-03-17T18:54:37.235Z,33.81
2023-03-17T19:14:37.229Z,33.81
2023-03-17T19:34:37.260Z,33.81
2023-03-17T19:54:37.212Z,33.8
2023-03-17T20:14:37.222Z,33.8
2023-03-17T20:34:37.217Z,33.8
2023-03-17T20:54:36.669Z,33.8
2023-03-17T21:14:36.442Z,33.8
2023-03-17T21:34:37.181Z,33.79
2023-03-17T21:54:37.166Z,33.79
2023-03-17T22:14:37.030Z,33.79
2023-03-17T22:34:37.150Z,33.79
2023-03-17T22:54:36.376Z,33.79
2023-03-17T23:14:37.169Z,33.79
2023-03-17T23:34:37.135Z,33.79
2023-03-17T23:54:37.122Z,33.78
